Time;durP1;ratioP1;P1;durP2;ratioP2;P2;SDS_P1;SDS_P2;PMS_P1;PMS_P2;Temp;Humidity;BMP_temperature;BMP_pressure;BME280_temperature;BME280_humidity;BME280_pressure;Samples;Min_cycle;Max_cycle;Signal;HPM_P1;HPM_P2
2022/09/05 00:00:19;;;;;;;4.40;1.45;;;18.90;99.90;;;;;;4999645;28;20079;-66
2022/09/05 00:03:19;;;;;;;0.80;0.60;;;18.80;99.90;;;;;;5032630;28;20044;-67
2022/09/05 00:06:12;;;;;;;1.90;1.17;;;18.90;99.90;;;;;;5013692;28;20034;-67
2022/09/05 00:09:19;;;;;;;1.50;1.02;;;19.10;99.90;;;;;;5015456;28;20030;-67
2022/09/05 00:11:54;;;;;;;2.08;1.40;;;18.90;99.90;;;;;;5032470;28;20658;-66
2022/09/05 00:14:59;;;;;;;4.22;1.63;;;18.80;99.90;;;;;;5015138;28;20389;-67
2022/09/05 00:17:42;;;;;;;2.38;1.02;;;18.70;99.90;;;;;;5032550;28;20072;-65
2022/09/05 00:20:30;;;;;;;2.05;1.38;;;18.70;99.90;;;;;;5032251;28;20053;-66
2022/09/05 00:23:20;;;;;;;2.13;1.08;;;18.70;99.90;;;;;;5015762;28;20539;-67
2022/09/05 00:26:23;;;;;;;2.60;1.02;;;18.60;99.90;;;;;;5015780;28;20695;-66
2022/09/05 00:29:25;;;;;;;1.70;1.15;;;18.60;99.90;;;;;;5016529;28;20393;-65
2022/09/05 00:32:22;;;;;;;1.77;1.05;;;18.80;99.90;;;;;;5032171;28;20083;-66
2022/09/05 00:35:22;;;;;;;1.35;0.90;;;18.80;99.90;;;;;;5032125;28;20030;-66
2022/09/05 00:37:49;;;;;;;2.13;1.10;;;18.80;99.90;;;;;;5032179;28;20088;-66
2022/09/05 00:40:37;;;;;;;5.82;1.70;;;18.90;99.90;;;;;;5031773;28;20120;-67
2022/09/05 00:43:11;;;;;;;1.73;0.90;;;18.90;99.90;;;;;;5014687;28;20033;-66
2022/09/05 00:45:46;;;;;;;1.40;0.80;;;18.90;99.90;;;;;;5014971;28;20040;-65
2022/09/05 00:48:24;;;;;;;2.42;1.02;;;18.80;99.90;;;;;;5015369;28;20072;-65
2022/09/05 00:51:06;;;;;;;1.80;1.02;;;18.80;99.90;;;;;;5013958;28;20107;-67
2022/09/05 00:54:11;;;;;;;1.92;0.90;;;18.70;99.90;;;;;;5015471;28;20108;-67
2022/09/05 00:57:17;;;;;;;2.00;1.17;;;18.60;99.90;;;;;;5015448;28;20450;-66
2022/09/05 01:00:06;;;;;;;2.28;1.02;;;18.40;99.90;;;;;;5030532;28;20516;-66
2022/09/05 01:02:50;;;;;;;2.05;0.98;;;17.90;99.90;;;;;;5031406;28;20496;-66
2022/09/05 01:06:13;;;;;;;2.08;1.20;;;17.80;99.90;;;;;;5024685;28;20033;-67
2022/09/05 01:09:18;;;;;;;1.88;1.30;;;17.80;99.90;;;;;;5023995;28;20032;-65
2022/09/05 01:11:51;;;;;;;2.42;1.30;;;17.80;99.90;;;;;;5014869;28;20132;-66
2022/09/05 01:14:47;;;;;;;1.35;0.82;;;17.80;99.90;;;;;;5031257;28;20052;-66
2022/09/05 01:17:50;;;;;;;3.13;1.08;;;17.90;99.90;;;;;;5025132;28;20040;-65
2022/09/05 01:20:48;;;;;;;3.28;1.77;;;17.90;99.90;;;;;;4995681;28;20044;-66
2022/09/05 01:24:16;;;;;;;1.58;0.75;;;17.80;99.90;;;;;;4996326;28;20033;-66
2022/09/05 01:26:59;;;;;;;1.20;0.73;;;17.90;99.90;;;;;;5008899;28;20034;-66
2022/09/05 01:29:49;;;;;;;2.17;1.30;;;18.00;99.90;;;;;;5013787;28;20466;-66
2022/09/05 01:32:26;;;;;;;2.03;0.80;;;18.00;99.90;;;;;;5013298;28;20133;-66
2022/09/05 01:35:03;;;;;;;1.35;0.95;;;18.00;99.90;;;;;;5031224;28;20063;-66
2022/09/05 01:37:49;;;;;;;1.73;1.10;;;18.00;99.90;;;;;;5029619;28;20030;-66
2022/09/05 01:40:28;;;;;;;1.88;1.35;;;18.00;99.90;;;;;;5029491;28;20489;-66
2022/09/05 01:43:32;;;;;;;5.30;1.08;;;18.00;99.90;;;;;;5029583;28;20446;-66
2022/09/05 01:46:16;;;;;;;1.38;0.80;;;17.90;99.90;;;;;;5030976;28;20029;-66
2022/09/05 01:49:19;;;;;;;2.67;1.33;;;18.00;99.90;;;;;;5030868;28;20459;-66
2022/09/05 01:52:27;;;;;;;1.48;0.82;;;18.10;99.90;;;;;;5029711;28;20401;-66
2022/09/05 01:55:22;;;;;;;1.33;1.00;;;18.20;99.90;;;;;;5030730;28;20032;-66
2022/09/05 01:58:15;;;;;;;5.85;1.33;;;18.40;99.90;;;;;;5030793;28;20036;-66
2022/09/05 02:00:59;;;;;;;1.10;0.98;;;18.40;99.90;;;;;;5012955;28;20037;-66
2022/09/05 02:03:43;;;;;;;1.55;0.88;;;18.40;99.90;;;;;;5029484;28;20080;-66
2022/09/05 02:06:32;;;;;;;1.95;0.88;;;18.40;99.90;;;;;;5030765;28;20114;-66
2022/09/05 02:09:28;;;;;;;1.42;1.00;;;18.20;99.90;;;;;;5029375;28;20030;-66
2022/09/05 02:12:14;;;;;;;3.13;1.42;;;18.10;99.90;;;;;;5032072;28;20492;-66
2022/09/05 02:15:12;;;;;;;2.65;1.38;;;18.20;99.90;;;;;;5030164;28;20037;-66
2022/09/05 02:17:40;;;;;;;1.92;1.20;;;18.20;99.90;;;;;;4980406;28;20561;-66
2022/09/05 02:20:26;;;;;;;2.15;1.10;;;18.10;99.90;;;;;;5014931;28;20371;-66
2022/09/05 02:22:55;;;;;;;1.75;0.90;;;17.90;99.90;;;;;;5013541;28;20030;-66
2022/09/05 02:25:48;;;;;;;2.65;1.30;;;17.90;99.90;;;;;;5014618;28;20121;-66
2022/09/05 02:28:54;;;;;;;3.78;1.45;;;17.90;99.90;;;;;;5014652;28;20037;-66
2022/09/05 02:31:52;;;;;;;1.98;1.25;;;17.70;99.90;;;;;;5014535;28;20045;-66
2022/09/05 02:34:50;;;;;;;2.60;1.45;;;17.80;99.90;;;;;;5013140;28;20045;-66
2022/09/05 02:37:52;;;;;;;1.00;0.77;;;17.80;99.90;;;;;;5013487;28;20798;-66
2022/09/05 02:40:35;;;;;;;2.10;1.10;;;17.70;99.90;;;;;;5016165;22;20068;-67
2022/09/05 02:43:29;;;;;;;5.38;1.10;;;17.70;99.90;;;;;;5037451;28;20220;-65
2022/09/05 02:46:17;;;;;;;1.75;0.95;;;17.60;99.90;;;;;;5038358;28;20028;-65
2022/09/05 02:48:55;;;;;;;1.83;1.30;;;17.60;99.90;;;;;;5036694;28;20025;-65
2022/09/05 02:51:50;;;;;;;2.55;1.42;;;17.50;99.90;;;;;;5016691;28;20029;-65
2022/09/05 02:54:27;;;;;;;1.30;0.90;;;17.50;99.90;;;;;;5012467;28;20069;-65
2022/09/05 02:57:28;;;;;;;1.52;1.15;;;17.50;99.90;;;;;;5016888;28;20600;-65
2022/09/05 03:00:20;;;;;;;1.83;1.27;;;17.50;99.90;;;;;;5018141;28;20052;-66
2022/09/05 03:03:18;;;;;;;4.32;1.35;;;17.50;99.90;;;;;;5016507;28;20037;-66
2022/09/05 03:06:11;;;;;;;1.45;0.93;;;17.70;99.90;;;;;;5034033;28;20445;-66
2022/09/05 03:08:48;;;;;;;4.38;1.63;;;17.60;99.90;;;;;;5017611;28;20041;-66
2022/09/05 03:11:27;;;;;;;1.98;1.15;;;17.60;99.90;;;;;;5033443;28;20033;-66
2022/09/05 03:14:24;;;;;;;1.85;1.13;;;17.60;99.90;;;;;;5015765;28;20052;-66
2022/09/05 03:17:08;;;;;;;4.70;1.45;;;17.50;99.90;;;;;;5013905;28;20037;-66
2022/09/05 03:20:09;;;;;;;2.05;1.23;;;17.60;99.90;;;;;;5013570;28;20037;-66
2022/09/05 03:23:10;;;;;;;2.92;1.65;;;17.80;99.90;;;;;;5012573;28;20034;-65
2022/09/05 03:26:17;;;;;;;1.33;0.95;;;17.70;99.90;;;;;;4996415;28;20026;-66
2022/09/05 03:29:13;;;;;;;2.05;1.30;;;17.90;99.90;;;;;;4974460;28;20037;-65
2022/09/05 03:32:14;;;;;;;7.70;1.92;;;17.90;99.90;;;;;;5013483;28;20030;-64
2022/09/05 03:34:42;;;;;;;2.28;1.48;;;17.80;99.90;;;;;;4998456;28;20026;-65
2022/09/05 03:37:26;;;;;;;4.63;1.63;;;17.70;99.90;;;;;;5013528;28;20034;-65
2022/09/05 03:40:24;;;;;;;3.05;1.52;;;17.60;99.90;;;;;;5013111;28;20100;-65
2022/09/05 03:43:28;;;;;;;2.63;1.52;;;17.60;99.90;;;;;;4997699;28;20044;-65
2022/09/05 03:46:24;;;;;;;3.72;1.52;;;17.50;99.90;;;;;;5013271;28;20030;-66
2022/09/05 03:49:27;;;;;;;3.42;1.88;;;17.50;99.90;;;;;;5013161;28;20045;-66
2022/09/05 03:52:17;;;;;;;4.32;1.85;;;17.50;99.90;;;;;;5012901;28;20037;-66
2022/09/05 03:55:14;;;;;;;3.00;1.75;;;17.50;99.90;;;;;;5012958;28;20494;-65
2022/09/05 03:58:09;;;;;;;3.58;2.05;;;17.40;99.90;;;;;;4996008;28;20368;-65
2022/09/05 04:00:36;;;;;;;3.78;1.90;;;17.40;99.90;;;;;;4963144;28;20066;-66
2022/09/05 04:03:02;;;;;;;2.78;1.38;;;17.30;99.90;;;;;;5015833;28;20036;-66
2022/09/05 04:05:36;;;;;;;3.38;1.45;;;17.30;99.90;;;;;;5028609;28;20033;-66
2022/09/05 04:08:50;;;;;;;2.42;1.50;;;17.20;99.90;;;;;;5014717;28;20434;-65
2022/09/05 04:11:34;;;;;;;3.00;1.52;;;17.30;99.90;;;;;;4995275;28;20034;-66
2022/09/05 04:14:31;;;;;;;5.28;2.10;;;17.20;99.90;;;;;;5014714;28;20033;-66
2022/09/05 04:17:08;;;;;;;3.85;2.05;;;17.30;99.90;;;;;;5014636;28;20573;-66
2022/09/05 04:19:46;;;;;;;6.22;2.28;;;17.30;99.90;;;;;;5028984;28;20041;-66
2022/09/05 04:22:38;;;;;;;3.92;1.73;;;17.30;99.90;;;;;;5005609;28;20061;-67
2022/09/05 04:25:14;;;;;;;3.25;1.83;;;17.30;99.90;;;;;;5021715;28;20029;-67
2022/09/05 04:28:13;;;;;;;25.23;12.48;;;17.30;99.90;;;;;;5019548;28;20039;-66
2022/09/05 04:30:43;;;;;;;8.85;5.30;;;17.30;99.90;;;;;;5006174;28;20092;-65
2022/09/05 04:33:28;;;;;;;4.20;1.83;;;17.40;99.90;;;;;;5025505;28;21075;-64
2022/09/05 04:36:21;;;;;;;4.03;1.90;;;17.40;99.90;;;;;;5012219;28;20581;-64
2022/09/05 04:39:17;;;;;;;5.88;2.60;;;17.40;99.90;;;;;;5012066;28;20066;-65
2022/09/05 04:41:57;;;;;;;4.68;2.22;;;17.40;99.90;;;;;;5011757;28;20056;-65
2022/09/05 04:44:35;;;;;;;3.45;2.08;;;17.40;99.90;;;;;;4995455;28;20088;-64
2022/09/05 04:47:30;;;;;;;5.68;3.28;;;17.40;99.90;;;;;;4994761;28;20470;-65
2022/09/05 04:50:15;;;;;;;3.05;1.98;;;17.40;99.90;;;;;;4986556;28;20096;-65
2022/09/05 04:53:08;;;;;;;4.25;2.33;;;17.40;99.90;;;;;;4978562;28;20497;-65
2022/09/05 04:55:44;;;;;;;3.13;1.88;;;17.40;99.90;;;;;;5021252;28;20037;-67
2022/09/05 04:58:31;;;;;;;5.75;2.75;;;17.30;99.90;;;;;;5014192;28;20033;-67
2022/09/05 05:01:12;;;;;;;4.70;2.30;;;17.40;99.90;;;;;;5014940;28;20489;-66
2022/09/05 05:03:38;;;;;;;5.82;2.85;;;17.40;99.90;;;;;;5013764;28;20444;-66
2022/09/05 05:06:28;;;;;;;3.42;1.92;;;17.40;99.90;;;;;;5030075;28;20033;-67
2022/09/05 05:09:14;;;;;;;2.47;1.75;;;17.30;99.90;;;;;;5029741;28;20053;-66
2022/09/05 05:11:53;;;;;;;4.15;2.50;;;17.40;99.90;;;;;;5029582;28;20432;-67
2022/09/05 05:14:52;;;;;;;5.93;2.30;;;17.40;99.90;;;;;;5029053;28;20032;-67
2022/09/05 05:17:37;;;;;;;3.95;2.25;;;17.40;99.90;;;;;;5011229;28;20079;-68
2022/09/05 05:20:16;;;;;;;3.78;2.40;;;17.40;99.90;;;;;;5009687;28;20156;-68
2022/09/05 05:22:59;;;;;;;4.32;2.35;;;17.40;99.90;;;;;;5010816;28;20482;-68
2022/09/05 05:25:26;;;;;;;3.90;2.13;;;17.40;99.90;;;;;;5009704;28;20524;-68
2022/09/05 05:28:16;;;;;;;5.63;2.88;;;17.40;99.90;;;;;;5009820;28;20026;-67
2022/09/05 05:30:42;;;;;;;5.68;2.30;;;17.40;99.90;;;;;;5013397;28;20025;-67
2022/09/05 05:33:28;;;;;;;4.43;2.45;;;17.40;99.90;;;;;;5030348;28;20049;-66
2022/09/05 05:35:57;;;;;;;3.13;2.20;;;17.40;99.90;;;;;;5030653;28;20032;-67
2022/09/05 05:38:58;;;;;;;4.43;2.33;;;17.40;99.90;;;;;;5030362;28;20116;-66
2022/09/05 05:41:50;;;;;;;5.65;2.58;;;17.50;99.90;;;;;;5029280;28;20402;-66
2022/09/05 05:44:37;;;;;;;5.15;2.67;;;17.40;99.90;;;;;;5030567;28;20091;-66
2022/09/05 05:47:29;;;;;;;3.22;2.10;;;17.40;99.90;;;;;;5028623;28;20107;-66
2022/09/05 05:50:25;;;;;;;4.75;2.35;;;17.40;99.90;;;;;;5024515;28;20856;-66
2022/09/05 05:53:32;;;;;;;6.25;2.15;;;17.50;99.90;;;;;;5030336;28;20040;-66
2022/09/05 05:56:09;;;;;;;3.95;2.08;;;17.60;99.90;;;;;;5029238;28;20040;-66
2022/09/05 05:59:07;;;;;;;4.10;2.05;;;17.60;99.90;;;;;;5030179;28;20030;-67
2022/09/05 06:01:57;;;;;;;4.00;1.80;;;17.60;99.90;;;;;;5028744;28;20029;-66
2022/09/05 06:04:47;;;;;;;3.60;2.10;;;17.60;99.90;;;;;;5029966;28;20382;-67
2022/09/05 06:07:45;;;;;;;6.18;2.38;;;17.60;99.90;;;;;;5010697;28;20556;-65
2022/09/05 06:10:41;;;;;;;6.25;2.47;;;17.70;99.90;;;;;;4995279;28;20036;-67
2022/09/05 06:13:40;;;;;;;4.70;2.47;;;17.70;99.90;;;;;;5010639;28;20498;-67
2022/09/05 06:16:34;;;;;;;4.80;2.17;;;17.70;99.90;;;;;;5030061;28;20104;-68
2022/09/05 06:19:56;;;;;;;4.53;2.20;;;17.80;99.90;;;;;;5009598;28;20148;-69
2022/09/05 06:22:55;;;;;;;2.92;1.73;;;17.90;99.90;;;;;;5013555;28;20679;-68
2022/09/05 06:25:39;;;;;;;5.40;2.15;;;18.00;99.90;;;;;;4993937;28;20029;-68
2022/09/05 06:28:41;;;;;;;2.75;1.73;;;18.00;99.90;;;;;;5015705;28;20117;-68
2022/09/05 06:31:37;;;;;;;3.53;1.90;;;18.10;99.90;;;;;;5009669;28;20037;-67
2022/09/05 06:34:33;;;;;;;4.43;2.45;;;18.40;99.90;;;;;;5016093;28;20137;-69
2022/09/05 06:37:08;;;;;;;14.25;2.10;;;18.50;99.90;;;;;;5028742;28;20029;-68
2022/09/05 06:39:52;;;;;;;3.85;2.10;;;18.60;99.90;;;;;;5028512;28;20092;-68
2022/09/05 06:42:37;;;;;;;3.83;1.95;;;18.70;99.90;;;;;;5029556;28;20037;-68
2022/09/05 06:45:42;;;;;;;5.63;2.65;;;18.90;99.90;;;;;;5012967;28;20041;-68
2022/09/05 06:48:25;;;;;;;3.53;2.15;;;18.90;99.90;;;;;;5008452;28;20041;-68
2022/09/05 06:51:15;;;;;;;7.90;4.05;;;19.10;99.90;;;;;;5008586;28;20034;-69
2022/09/05 06:54:13;;;;;;;5.17;2.07;;;19.20;99.90;;;;;;5009317;28;20502;-68
2022/09/05 06:57:12;;;;;;;4.47;2.35;;;19.10;99.90;;;;;;5030153;28;20048;-68
2022/09/05 07:00:33;;;;;;;7.95;2.33;;;19.10;99.90;;;;;;5028459;28;20065;-68
2022/09/05 07:03:29;;;;;;;4.82;2.30;;;19.20;99.90;;;;;;4985955;28;20046;-69
2022/09/05 07:06:21;;;;;;;3.63;1.80;;;19.30;99.90;;;;;;5014910;28;20037;-69
2022/09/05 07:09:12;;;;;;;4.72;1.98;;;19.40;99.90;;;;;;4981043;28;20041;-69
2022/09/05 07:12:16;;;;;;;5.13;3.05;;;19.40;99.90;;;;;;5011583;28;20575;-67
2022/09/05 07:15:29;;;;;;;4.03;2.60;;;19.50;99.90;;;;;;4977659;28;20042;-68
2022/09/05 07:17:58;;;;;;;3.65;2.20;;;19.50;99.90;;;;;;4988560;28;20038;-67
2022/09/05 07:20:47;;;;;;;7.63;2.72;;;19.50;99.90;;;;;;5012824;28;20505;-68
2022/09/05 07:23:52;;;;;;;5.10;2.83;;;19.60;99.90;;;;;;4999701;28;20033;-67
2022/09/05 07:26:20;;;;;;;3.10;1.88;;;19.60;99.90;;;;;;5031746;28;20064;-67
2022/09/05 07:28:56;;;;;;;3.67;2.33;;;19.70;99.90;;;;;;5017102;28;20029;-67
2022/09/05 07:31:26;;;;;;;8.15;2.15;;;19.80;99.90;;;;;;5011306;28;20037;-68
2022/09/05 07:34:36;;;;;;;3.20;1.93;;;19.90;99.90;;;;;;5020204;28;20025;-68
2022/09/05 07:37:22;;;;;;;4.18;2.35;;;19.90;99.90;;;;;;5010797;28;20034;-66
2022/09/05 07:40:08;;;;;;;3.63;2.28;;;20.10;99.90;;;;;;5012786;28;20033;-66
2022/09/05 07:42:43;;;;;;;6.28;2.28;;;20.10;99.90;;;;;;4996106;28;20466;-66
2022/09/05 07:45:22;;;;;;;8.10;2.53;;;20.30;99.90;;;;;;4995907;28;20044;-67
2022/09/05 07:48:11;;;;;;;3.85;1.90;;;20.30;99.90;;;;;;5008885;28;20405;-66
2022/09/05 07:51:00;;;;;;;4.72;2.55;;;20.40;99.90;;;;;;5001848;28;20060;-67
2022/09/05 07:53:26;;;;;;;13.23;3.67;;;20.50;99.90;;;;;;4994816;28;20041;-67
2022/09/05 07:56:01;;;;;;;6.40;3.60;;;20.50;99.90;;;;;;5012461;28;20042;-67
2022/09/05 07:58:50;;;;;;;14.43;3.45;;;20.60;99.90;;;;;;4995106;28;20040;-67
2022/09/05 08:01:20;;;;;;;10.70;3.25;;;20.70;99.90;;;;;;5012363;28;20146;-67
2022/09/05 08:03:54;;;;;;;7.82;3.47;;;20.90;99.90;;;;;;5016381;28;20435;-67
2022/09/05 08:06:24;;;;;;;6.78;2.55;;;21.00;99.90;;;;;;5024534;28;20033;-67
2022/09/05 08:09:20;;;;;;;6.23;2.87;;;21.10;99.90;;;;;;5019086;28;20156;-67
2022/09/05 08:11:48;;;;;;;7.43;2.83;;;21.10;99.90;;;;;;5015983;28;20330;-66
2022/09/05 08:14:41;;;;;;;7.47;3.60;;;21.20;99.90;;;;;;5013740;28;20029;-67
2022/09/05 08:17:17;;;;;;;7.53;2.40;;;21.30;99.90;;;;;;5012824;28;20080;-67
2022/09/05 08:20:07;;;;;;;6.97;2.67;;;21.50;99.90;;;;;;4997510;28;20034;-67
2022/09/05 08:22:58;;;;;;;5.03;2.25;;;21.50;99.90;;;;;;5018055;28;20437;-67
2022/09/05 08:25:39;;;;;;;4.82;1.92;;;21.60;99.90;;;;;;5009824;28;20486;-67
2022/09/05 08:28:34;;;;;;;3.95;2.40;;;21.70;99.90;;;;;;5015222;28;20029;-67
2022/09/05 08:31:13;;;;;;;5.75;2.38;;;21.80;99.90;;;;;;5010268;28;20063;-67
2022/09/05 08:33:39;;;;;;;4.57;2.03;;;21.90;99.90;;;;;;5014706;28;20485;-66
2022/09/05 08:36:22;;;;;;;2.65;1.67;;;22.10;99.90;;;;;;5021718;28;20075;-68
2022/09/05 08:38:49;;;;;;;3.97;1.98;;;22.20;99.90;;;;;;5009791;28;20036;-67
2022/09/05 08:41:25;;;;;;;3.40;1.90;;;22.20;99.90;;;;;;5025090;23;20048;-62
2022/09/05 08:44:30;;;;;;;5.00;1.80;;;22.30;99.90;;;;;;4986930;28;20174;-65
2022/09/05 08:47:27;;;;;;;2.92;1.60;;;22.40;99.90;;;;;;4985739;28;20045;-65
2022/09/05 08:50:42;;;;;;;3.03;1.90;;;22.50;99.90;;;;;;4972191;28;20026;-66
2022/09/05 08:53:20;;;;;;;3.40;1.55;;;22.70;99.90;;;;;;4998874;28;20049;-65
2022/09/05 08:56:09;;;;;;;3.65;1.67;;;22.90;99.90;;;;;;4988475;28;20749;-65
2022/09/05 08:59:14;;;;;;;3.08;1.70;;;23.00;99.90;;;;;;5001345;28;20397;-65
2022/09/05 09:02:50;;;;;;;3.90;1.45;;;23.20;99.90;;;;;;4992858;28;20034;-64
2022/09/05 09:05:50;;;;;;;5.40;2.53;;;23.20;99.90;;;;;;5010481;28;20056;-64
2022/09/05 09:09:09;;;;;;;7.07;2.22;;;23.40;99.90;;;;;;4992287;28;20517;-64
2022/09/05 09:11:51;;;;;;;3.60;1.45;;;23.60;99.90;;;;;;4993477;28;20033;-64
2022/09/05 09:14:49;;;;;;;2.08;1.65;;;23.70;99.90;;;;;;4975102;28;20030;-65
2022/09/05 09:17:23;;;;;;;5.00;1.90;;;23.90;99.90;;;;;;4992712;28;20041;-65
2022/09/05 09:20:05;;;;;;;4.13;1.63;;;24.00;99.90;;;;;;4987755;28;20363;-64
2022/09/05 09:23:01;;;;;;;2.55;1.50;;;23.90;99.90;;;;;;5006646;28;20034;-66
2022/09/05 09:25:35;;;;;;;2.80;1.38;;;24.00;99.90;;;;;;5010082;28;20033;-65
2022/09/05 09:28:46;;;;;;;6.05;1.20;;;24.20;99.90;;;;;;5006714;28;20550;-66
2022/09/05 09:31:38;;;;;;;3.72;1.50;;;24.00;99.90;;;;;;5009598;28;20037;-65
2022/09/05 09:34:25;;;;;;;2.42;1.15;;;24.20;99.90;;;;;;4994872;28;20050;-65
2022/09/05 09:37:47;;;;;;;1.60;0.93;;;24.40;99.90;;;;;;5010063;28;20109;-66
2022/09/05 09:40:50;;;;;;;3.38;1.33;;;24.60;99.90;;;;;;5009769;28;20038;-65
2022/09/05 09:43:32;;;;;;;5.07;1.25;;;24.90;99.50;;;;;;5009572;28;20045;-65
2022/09/05 09:46:33;;;;;;;6.05;1.27;;;24.90;99.10;;;;;;4993576;28;20033;-66
2022/09/05 09:49:10;;;;;;;1.77;1.00;;;25.10;99.10;;;;;;4993660;28;20037;-66
2022/09/05 09:52:12;;;;;;;3.22;1.60;;;25.30;98.90;;;;;;5008445;28;20489;-66
2022/09/05 09:55:06;;;;;;;5.30;1.30;;;25.20;99.50;;;;;;5009896;28;20038;-66
2022/09/05 09:58:03;;;;;;;7.43;1.80;;;25.10;98.90;;;;;;5010049;28;20490;-66
2022/09/05 10:00:51;;;;;;;3.05;1.20;;;25.40;99.10;;;;;;5009501;28;20722;-66
2022/09/05 10:03:56;;;;;;;2.25;1.60;;;25.50;99.00;;;;;;4993816;28;20037;-66
2022/09/05 10:07:16;;;;;;;3.35;2.05;;;25.70;99.10;;;;;;5008406;28;20080;-66
2022/09/05 10:09:53;;;;;;;2.20;1.08;;;25.70;98.80;;;;;;5009073;28;20096;-65
2022/09/05 10:12:59;;;;;;;2.20;0.90;;;25.70;98.20;;;;;;5004883;28;20073;-64
2022/09/05 10:15:29;;;;;;;8.38;1.67;;;25.50;98.30;;;;;;5004940;28;20041;-64
2022/09/05 10:18:26;;;;;;;2.80;1.10;;;25.80;98.70;;;;;;5009061;28;20040;-64
2022/09/05 10:21:18;;;;;;;2.20;1.35;;;25.60;98.70;;;;;;5006858;28;20280;-65
2022/09/05 10:24:11;;;;;;;1.83;0.93;;;25.70;98.00;;;;;;4984205;28;20513;-64
2022/09/05 10:27:18;;;;;;;1.80;1.20;;;26.00;98.10;;;;;;4989551;28;20058;-65
2022/09/05 10:29:52;;;;;;;2.33;0.98;;;26.40;97.80;;;;;;5008300;28;20096;-65
2022/09/05 10:32:23;;;;;;;1.75;1.10;;;26.50;97.30;;;;;;5010638;28;20033;-69
2022/09/05 10:35:10;;;;;;;5.45;1.20;;;26.50;97.20;;;;;;5013146;28;20722;-68
2022/09/05 10:37:43;;;;;;;6.57;1.40;;;26.80;97.20;;;;;;4992511;28;20088;-67
2022/09/05 10:40:16;;;;;;;2.22;1.02;;;26.90;95.40;;;;;;5005766;28;20022;-67
2022/09/05 10:43:00;;;;;;;4.35;1.25;;;26.90;95.60;;;;;;4992262;28;20030;-67
2022/09/05 10:45:34;;;;;;;1.23;0.88;;;27.10;95.90;;;;;;4990075;28;20030;-67
2022/09/05 10:48:47;;;;;;;2.03;0.88;;;27.20;95.30;;;;;;4995636;28;20038;-68
2022/09/05 10:51:28;;;;;;;1.95;1.13;;;27.40;94.30;;;;;;5011641;28;20025;-68
2022/09/05 10:54:24;;;;;;;;;;;27.40;94.80;;;;;;4992268;28;20425;-69
2022/09/05 10:57:29;;;;;;;1.00;0.65;;;27.60;94.30;;;;;;4994413;28;19917;-67
2022/09/05 11:00:06;;;;;;;1.00;0.75;;;27.80;93.10;;;;;;4991200;28;20056;-70
2022/09/05 11:02:42;;;;;;;3.05;0.85;;;27.90;93.90;;;;;;4992639;28;20038;-69
2022/09/05 11:05:25;;;;;;;1.73;0.90;;;28.00;93.60;;;;;;4995201;28;20068;-69
2022/09/05 11:08:00;;;;;;;1.00;0.68;;;27.90;93.30;;;;;;5012715;28;20399;-69
2022/09/05 11:10:49;;;;;;;1.48;0.85;;;28.20;93.40;;;;;;5012776;28;20041;-69
2022/09/05 11:13:35;;;;;;;1.30;0.85;;;28.30;93.20;;;;;;5010145;28;20596;-69
2022/09/05 11:16:31;;;;;;;0.45;0.40;;;28.40;93.50;;;;;;5009981;28;20037;-69
2022/09/05 11:19:11;;;;;;;2.40;1.40;;;28.60;92.30;;;;;;5012088;28;20083;-69
2022/09/05 11:22:04;;;;;;;8.90;1.13;;;28.60;92.30;;;;;;5012239;28;20065;-70
2022/09/05 11:24:45;;;;;;;4.90;1.48;;;28.80;91.60;;;;;;5011903;28;20124;-69
2022/09/05 11:27:36;;;;;;;1.40;0.57;;;28.80;91.60;;;;;;4995593;28;20477;-69
2022/09/05 11:30:32;;;;;;;1.15;0.80;;;28.70;91.60;;;;;;4993070;28;20046;-69
2022/09/05 11:34:19;;;;;;;1.25;0.80;;;28.70;91.70;;;;;;5006969;28;20026;-69
2022/09/05 11:36:54;;;;;;;1.30;0.70;;;29.00;90.70;;;;;;4960395;28;20045;-69
2022/09/05 11:40:04;;;;;;;1.33;0.57;;;29.10;90.90;;;;;;4994217;28;20038;-70
2022/09/05 11:42:44;;;;;;;8.63;1.10;;;29.10;91.50;;;;;;5006948;28;20092;-70
2022/09/05 11:45:26;;;;;;;3.90;1.10;;;29.20;90.70;;;;;;4976248;28;20439;-70
2022/09/05 11:48:45;;;;;;;1.23;0.60;;;29.50;90.80;;;;;;4991256;28;20023;-70
2022/09/05 11:51:30;;;;;;;4.03;0.82;;;29.90;89.10;;;;;;5007911;28;20038;-70
2022/09/05 11:54:10;;;;;;;1.05;0.73;;;29.70;88.70;;;;;;5009115;28;20033;-70
2022/09/05 11:57:11;;;;;;;1.65;0.80;;;29.80;88.60;;;;;;4993733;28;20037;-69
2022/09/05 12:00:02;;;;;;;1.63;0.70;;;30.00;87.50;;;;;;4992074;28;20026;-70
2022/09/05 12:03:13;;;;;;;3.15;0.90;;;30.10;87.40;;;;;;5000231;28;20759;-71
2022/09/05 12:06:13;;;;;;;1.70;0.80;;;30.10;86.30;;;;;;4991109;28;20537;-70
2022/09/05 12:08:54;;;;;;;3.15;1.10;;;30.20;86.00;;;;;;5005644;28;20026;-70
2022/09/05 12:11:41;;;;;;;4.72;0.93;;;30.50;86.40;;;;;;4990715;28;20116;-71
2022/09/05 12:14:38;;;;;;;5.70;0.90;;;30.30;87.80;;;;;;4989225;28;20037;-69
2022/09/05 12:17:30;;;;;;;26.75;4.18;;;30.50;88.70;;;;;;5008535;28;20087;-69
2022/09/05 12:20:06;;;;;;;0.95;0.75;;;30.60;87.30;;;;;;5010775;28;20080;-70
2022/09/05 12:23:05;;;;;;;8.23;0.95;;;30.50;85.30;;;;;;5011446;28;20116;-70
2022/09/05 12:25:47;;;;;;;1.85;0.68;;;30.60;86.30;;;;;;4991952;28;20033;-70
2022/09/05 12:28:24;;;;;;;1.85;0.70;;;30.40;85.10;;;;;;4994622;28;20482;-70
2022/09/05 12:31:08;;;;;;;1.30;0.95;;;30.50;85.90;;;;;;4994704;28;20063;-70
2022/09/05 12:33:34;;;;;;;6.60;4.18;;;30.60;84.10;;;;;;4990982;28;20033;-70
2022/09/05 12:36:05;;;;;;;1.30;0.85;;;31.00;84.20;;;;;;4991662;28;20485;-70
2022/09/05 12:38:50;;;;;;;1.50;1.25;;;30.90;83.30;;;;;;5010920;28;20093;-70
2022/09/05 12:41:25;;;;;;;1.30;0.82;;;30.40;84.80;;;;;;4990345;28;20042;-68
2022/09/05 12:44:00;;;;;;;1.85;0.93;;;30.80;83.40;;;;;;4985855;28;20029;-70
2022/09/05 12:46:44;;;;;;;4.32;2.25;;;30.60;83.70;;;;;;5007551;28;20029;-70
2022/09/05 12:49:31;;;;;;;2.65;0.60;;;31.00;83.20;;;;;;5004609;28;20034;-70
2022/09/05 12:52:05;;;;;;;3.22;0.98;;;31.30;83.20;;;;;;5010123;28;20033;-70
2022/09/05 12:54:53;;;;;;;1.20;0.82;;;31.80;81.80;;;;;;4989978;28;20038;-70
2022/09/05 12:57:31;;;;;;;2.05;0.80;;;31.70;81.00;;;;;;5002585;28;20037;-70
2022/09/05 13:00:09;;;;;;;5.38;2.08;;;31.90;79.60;;;;;;4993094;28;20032;-70
2022/09/05 13:02:42;;;;;;;6.55;1.08;;;32.30;80.30;;;;;;4993855;28;20128;-70
2022/09/05 13:05:44;;;;;;;2.28;0.90;;;32.60;79.00;;;;;;4993222;28;20064;-70
2022/09/05 13:08:20;;;;;;;0.68;0.50;;;32.50;76.80;;;;;;4990985;28;20069;-70
2022/09/05 13:10:55;;;;;;;1.60;0.77;;;31.50;77.50;;;;;;5010306;28;20440;-70
2022/09/05 13:13:27;;;;;;;3.08;1.30;;;31.90;77.60;;;;;;4993081;28;20018;-71
2022/09/05 13:15:53;;;;;;;0.88;0.60;;;32.40;77.80;;;;;;5010694;28;20544;-70
2022/09/05 13:18:26;;;;;;;2.25;0.60;;;32.90;74.40;;;;;;4992855;28;20033;-71
2022/09/05 13:20:54;;;;;;;2.60;1.15;;;32.80;75.70;;;;;;4986388;28;20029;-71
2022/09/05 13:23:30;;;;;;;1.10;0.65;;;33.40;75.20;;;;;;5009969;28;20442;-70
2022/09/05 13:26:32;;;;;;;4.80;0.90;;;33.10;74.30;;;;;;5010279;28;20286;-70
2022/09/05 13:29:10;;;;;;;1.20;0.57;;;33.80;72.20;;;;;;4993732;28;20030;-69
2022/09/05 13:31:43;;;;;;;5.90;2.20;;;33.30;72.80;;;;;;4993740;28;20029;-70
2022/09/05 13:34:26;;;;;;;3.10;0.63;;;33.70;72.40;;;;;;5009647;28;20117;-69
2022/09/05 13:37:28;;;;;;;1.42;0.80;;;33.80;71.50;;;;;;4992839;28;20112;-69
2022/09/05 13:40:18;;;;;;;4.85;1.98;;;33.50;71.30;;;;;;5005118;28;20048;-69
2022/09/05 13:43:20;;;;;;;5.53;1.70;;;34.40;71.60;;;;;;4992668;28;20034;-70
2022/09/05 13:46:06;;;;;;;1.30;0.70;;;33.20;70.70;;;;;;4986002;28;20037;-70
2022/09/05 13:48:48;;;;;;;0.82;0.63;;;34.30;69.30;;;;;;5010182;28;20079;-70
2022/09/05 13:51:29;;;;;;;2.47;0.88;;;34.10;68.10;;;;;;4976656;28;20041;-69
2022/09/05 13:54:35;;;;;;;1.42;0.70;;;33.70;64.90;;;;;;4985092;28;20072;-69
2022/09/05 13:57:24;;;;;;;1.63;0.80;;;33.30;65.20;;;;;;5001006;28;20486;-69
2022/09/05 14:00:47;;;;;;;3.80;0.75;;;33.90;65.40;;;;;;5009643;28;20025;-69
2022/09/05 14:03:36;;;;;;;1.10;0.50;;;33.00;62.90;;;;;;4979546;28;20482;-69
2022/09/05 14:06:27;;;;;;;5.05;0.80;;;33.40;62.50;;;;;;5003615;28;20038;-69
2022/09/05 14:09:37;;;;;;;8.05;0.60;;;33.10;60.80;;;;;;4987568;28;20548;-69
2022/09/05 14:12:29;;;;;;;;;;;33.50;60.50;;;;;;4891737;29;20047;-73
2022/09/05 14:15:40;;;;;;;1.02;0.60;;;33.10;61.60;;;;;;4990125;28;20569;-69
2022/09/05 14:18:24;;;;;;;0.85;0.28;;;33.30;61.20;;;;;;5005571;28;20046;-69
2022/09/05 14:21:16;;;;;;;0.68;0.38;;;32.90;60.00;;;;;;4985790;28;20058;-69
2022/09/05 14:23:55;;;;;;;0.73;0.60;;;33.10;60.00;;;;;;5009051;28;20453;-69
2022/09/05 14:26:35;;;;;;;1.00;0.47;;;34.20;60.80;;;;;;4990766;28;20088;-69
2022/09/05 14:29:08;;;;;;;0.75;0.52;;;33.50;59.00;;;;;;4974033;28;20034;-68
2022/09/05 14:32:27;;;;;;;1.20;0.50;;;33.50;61.70;;;;;;5009696;28;20048;-69
2022/09/05 14:35:19;;;;;;;1.42;0.60;;;33.30;60.50;;;;;;5004332;28;20029;-70
2022/09/05 14:38:17;;;;;;;2.25;0.60;;;33.00;63.00;;;;;;4994472;28;20642;-69
2022/09/05 14:41:25;;;;;;;1.08;0.60;;;33.50;62.10;;;;;;4988675;28;20037;-69